Startpagina
METAR-TAF:

METAR-TAF

Vliegvelden :

Khartoem, Soedan

Luchthaven van Khartoem

breedte: 15-36N, lengte: 032-33E, hoogte: 382 m

Actueel weer

Dit bericht is 39 minuten geleden gemaakt, om 02:30 UTC
Wind 13 kt uit het zuiden
Temperatuur 29°C
Vochtigheid 66%
Druk 1006 hPa
Zicht 10 km of meer
geen wolken onder 1500 m en geen cumulonimbus

METAR: HSSS 240230Z 18013KT CAVOK 29/22 Q1006 NOSIG

Tijdstip: 06:09 (03:09 UTC)

Verwachting

Dit bericht is 4 uur en het 9 minuten geleden gemaakt, om 23:00 UTC
Verwachting geldig van 24 om 00 UTC tot 25 om 06 UTC
Wind 8 kt uit het zuidzuidwesten met uitschieters tot 18 kt
Zicht 10 km of meer
geen wolken onder 1500 m en geen cumulonimbus
Kans 30% :
Tijdelijke
van 24 om 00 UTC tot 24 om 02 UTC
Zicht 10 km of meer
Kans 30% :
Tijdelijke
van 24 om 02 UTC tot 24 om 06 UTC
Zicht: 6000 m
Weinig wolken op 4500 ft, Cumulonimbus.
onweer, regen

TAF: HSSS 232300Z 2400/2506 21008G18KT CAVOK PROB30 TEMPO 2400/2402 9999 FEW040SCT140 PROB30 TEMPO 2402/2406 6000 TSRA FEW045CB

Waarnemingen en weersverwachtingen van meer dan 4000 vliegvelden (METAR en TAF).

De beschikbare stations zijn de gele en rode punten op de kaart.

Ga met uw muis naar het station om de naam te zien.

Klik dan om waarnemingen en weersverwachtingen te zien.

kaart wijzigen: klik op de groene knoppen met een zwart kruis om in te zoomen, op de groene knop met een streepje om uit te zoomen of op de groene pijlen voor aangrenzende kaarten.


METAR-TAF: